createdAt,value
2023-02-13T00:03:55.605Z,11.66
2023-02-13T00:09:01.600Z,12.03
2023-02-13T00:14:07.865Z,13.21
2023-02-13T00:19:13.938Z,11.45
2023-02-13T00:24:20.091Z,11.58
2023-02-13T00:29:26.178Z,10.92
2023-02-13T00:34:33.188Z,11.59
2023-02-13T00:39:39.324Z,11.59
2023-02-13T00:44:45.596Z,12.21
2023-02-13T00:49:51.731Z,11.60
2023-02-13T00:54:57.892Z,10.88
2023-02-13T01:00:03.938Z,12.19
2023-02-13T01:05:10.246Z,11.33
2023-02-13T01:10:16.356Z,11.03
2023-02-13T01:15:22.666Z,12.04
2023-02-13T01:20:28.741Z,12.80
2023-02-13T01:25:35.371Z,14.85
2023-02-13T01:30:41.541Z,12.33
2023-02-13T01:35:47.720Z,11.86
2023-02-13T01:40:53.767Z,11.97
2023-02-13T01:45:59.901Z,11.10
2023-02-13T01:51:06.006Z,10.86
2023-02-13T01:56:12.593Z,12.51
2023-02-13T02:01:18.775Z,12.56
2023-02-13T02:06:24.899Z,11.79
2023-02-13T02:11:31.003Z,12.75
2023-02-13T02:16:37.254Z,12.80
2023-02-13T02:21:43.387Z,13.95
2023-02-13T02:26:50.403Z,13.19
2023-02-13T02:31:56.547Z,12.98
2023-02-13T02:37:02.696Z,13.18
2023-02-13T02:42:09.130Z,13.57
2023-02-13T02:47:15.356Z,13.37
2023-02-13T02:52:21.447Z,14.02
2023-02-13T02:57:27.914Z,13.97
2023-02-13T03:02:34.043Z,13.14
2023-02-13T03:07:40.232Z,13.10
2023-02-13T03:12:46.398Z,12.78
2023-02-13T03:17:52.622Z,14.37
2023-02-13T03:22:58.766Z,13.40
2023-02-13T03:28:05.060Z,14.95
2023-02-13T03:33:11.147Z,12.86
2023-02-13T03:38:17.360Z,13.09
2023-02-13T03:43:23.511Z,12.48
2023-02-13T03:48:29.753Z,13.42
2023-02-13T03:53:35.834Z,12.26
2023-02-13T03:58:42.188Z,15.23
2023-02-13T04:03:49.245Z,13.07
2023-02-13T04:08:55.429Z,12.77
2023-02-13T04:14:01.528Z,14.31
2023-02-13T04:19:07.717Z,14.16
2023-02-13T04:24:13.897Z,14.68
2023-02-13T04:29:20.822Z,15.29
2023-02-13T04:34:27.022Z,13.53
2023-02-13T04:39:33.274Z,13.34
2023-02-13T04:44:39.444Z,14.02
2023-02-13T04:49:45.601Z,14.45
2023-02-13T04:54:51.690Z,14.27
2023-02-13T04:59:57.895Z,14.02
2023-02-13T05:05:04.059Z,13.46
2023-02-13T05:10:10.262Z,13.77
2023-02-13T05:15:16.414Z,14.24
2023-02-13T05:20:22.651Z,14.39
2023-02-13T05:25:28.711Z,13.35
2023-02-13T05:30:35.000Z,14.10
2023-02-13T05:35:41.172Z,13.59
2023-02-13T05:40:47.405Z,13.54
2023-02-13T05:45:53.463Z,14.06
2023-02-13T05:51:00.134Z,13.85
2023-02-13T05:56:06.352Z,12.61
2023-02-13T06:01:12.613Z,13.21
2023-02-13T06:06:18.712Z,11.63
2023-02-13T06:11:25.088Z,11.92
2023-02-13T06:16:31.220Z,11.69
2023-02-13T06:21:37.433Z,12.46
2023-02-13T06:26:43.529Z,12.05
2023-02-13T06:31:49.841Z,12.89
2023-02-13T06:36:55.953Z,12.59
2023-02-13T06:42:02.588Z,11.70
2023-02-13T06:47:08.730Z,12.38
2023-02-13T06:52:14.928Z,12.02
2023-02-13T06:57:20.994Z,12.80
2023-02-13T07:02:27.719Z,13.00
2023-02-13T07:07:33.694Z,13.45
2023-02-13T07:12:39.886Z,14.26
2023-02-13T07:17:45.951Z,14.52
2023-02-13T07:22:52.267Z,14.55
2023-02-13T07:27:58.553Z,13.52
2023-02-13T07:33:04.741Z,13.50
2023-02-13T07:38:10.849Z,14.25
2023-02-13T07:43:17.496Z,15.25
2023-02-13T07:48:23.587Z,16.04
2023-02-13T07:53:29.802Z,14.81
2023-02-13T07:58:35.866Z,14.64
2023-02-13T08:03:42.092Z,14.42
2023-02-13T08:08:48.128Z,16.31
2023-02-13T08:13:54.697Z,15.50
2023-02-13T08:19:00.745Z,15.39
2023-02-13T08:24:07.315Z,13.24
2023-02-13T08:29:13.371Z,15.58
2023-02-13T08:34:19.860Z,16.04
2023-02-13T08:39:25.928Z,16.58
2023-02-13T08:44:32.121Z,16.52
2023-02-13T08:49:38.181Z,16.57
2023-02-13T08:54:44.367Z,16.08
2023-02-13T08:59:50.425Z,15.98
2023-02-13T09:04:56.623Z,15.97
2023-02-13T09:10:02.688Z,15.64
2023-02-13T09:15:08.950Z,15.47
2023-02-13T09:20:15.038Z,13.15
2023-02-13T09:25:21.204Z,16.14
2023-02-13T09:30:27.353Z,16.91
2023-02-13T09:35:33.981Z,15.82
2023-02-13T09:40:40.057Z,16.51
2023-02-13T09:45:46.328Z,16.16
2023-02-13T09:50:52.509Z,16.14
2023-02-13T09:55:59.028Z,16.30
2023-02-13T10:01:04.882Z,16.38
2023-02-13T10:06:11.435Z,15.67
2023-02-13T10:11:17.489Z,15.34
2023-02-13T10:16:23.735Z,16.02
2023-02-13T10:21:29.709Z,16.18
2023-02-13T10:26:35.921Z,15.59
2023-02-13T10:31:42.075Z,14.86
2023-02-13T10:36:48.308Z,14.68
2023-02-13T10:41:54.416Z,15.40
2023-02-13T10:47:00.576Z,17.21
2023-02-13T10:52:06.645Z,16.69
2023-02-13T10:57:12.824Z,15.73
2023-02-13T11:02:18.901Z,16.58
2023-02-13T11:07:25.093Z,15.92
2023-02-13T11:12:31.154Z,15.65
2023-02-13T11:17:37.342Z,15.96
2023-02-13T11:22:43.486Z,15.99
2023-02-13T11:27:49.707Z,14.58
2023-02-13T11:32:55.780Z,15.74
2023-02-13T11:38:02.427Z,15.10
2023-02-13T11:43:08.506Z,16.78
2023-02-13T11:48:14.691Z,16.66
2023-02-13T11:53:20.776Z,16.06
2023-02-13T11:58:26.986Z,17.47
2023-02-13T12:03:33.151Z,17.50
2023-02-13T12:08:39.683Z,16.45
2023-02-13T12:13:45.767Z,18.14
2023-02-13T12:18:51.969Z,16.13
2023-02-13T12:23:58.051Z,17.34
2023-02-13T12:29:04.239Z,16.68
2023-02-13T12:34:10.318Z,17.86
2023-02-13T12:39:16.472Z,17.73
2023-02-13T12:44:22.632Z,18.07
2023-02-13T12:49:28.857Z,18.57
2023-02-13T12:54:34.917Z,16.27
2023-02-13T12:59:41.042Z,17.32
2023-02-13T13:04:47.111Z,17.01
2023-02-13T13:09:53.363Z,17.11
2023-02-13T13:14:59.477Z,17.23
2023-02-13T13:20:06.112Z,16.82
2023-02-13T13:25:12.216Z,15.06
2023-02-13T13:30:18.563Z,18.28
2023-02-13T13:35:24.624Z,17.33
2023-02-13T13:40:31.137Z,18.21
2023-02-13T13:45:37.198Z,17.54
2023-02-13T13:50:43.384Z,17.61
2023-02-13T13:55:49.442Z,17.35
2023-02-13T14:00:55.817Z,19.03
2023-02-13T14:06:01.762Z,17.64
2023-02-13T14:11:08.738Z,18.25
2023-02-13T14:16:14.866Z,16.96
2023-02-13T14:21:21.053Z,16.93
2023-02-13T14:26:27.235Z,16.55
2023-02-13T14:31:34.323Z,16.51
2023-02-13T14:36:40.366Z,17.16
2023-02-13T14:41:46.586Z,18.21
2023-02-13T14:46:52.661Z,17.11
2023-02-13T14:51:58.841Z,18.68
2023-02-13T14:57:04.900Z,18.38
2023-02-13T15:02:11.070Z,18.26
2023-02-13T15:07:17.143Z,16.87
2023-02-13T15:12:23.341Z,18.05
2023-02-13T15:17:29.509Z,18.10
2023-02-13T15:22:36.142Z,17.41
2023-02-13T15:27:42.218Z,18.17
2023-02-13T15:32:48.707Z,17.32
2023-02-13T15:37:54.771Z,16.95
2023-02-13T15:43:01.665Z,19.56
2023-02-13T15:48:07.740Z,18.92
2023-02-13T15:53:14.005Z,19.94
2023-02-13T15:58:20.088Z,24.60
2023-02-13T16:03:26.211Z,20.54
2023-02-13T16:08:32.320Z,20.49
2023-02-13T16:13:38.588Z,21.92
2023-02-13T16:18:46.105Z,21.46
2023-02-13T16:23:50.586Z,21.22
2023-02-13T16:28:56.648Z,22.74
2023-02-13T16:34:02.805Z,21.65
2023-02-13T16:39:08.893Z,20.64
2023-02-13T16:44:15.083Z,23.65
2023-02-13T16:49:21.142Z,24.10
2023-02-13T16:54:27.517Z,24.69
2023-02-13T16:59:33.585Z,23.82
2023-02-13T17:04:39.776Z,21.37
2023-02-13T17:09:45.925Z,28.01
2023-02-13T17:14:52.452Z,25.48
2023-02-13T17:19:58.536Z,23.65
2023-02-13T17:25:04.721Z,25.71
2023-02-13T17:30:10.868Z,24.25
2023-02-13T17:35:16.993Z,24.15
2023-02-13T17:40:23.087Z,24.54
2023-02-13T17:45:29.283Z,22.66
2023-02-13T17:50:35.343Z,23.71
2023-02-13T17:55:41.663Z,22.63
2023-02-13T18:00:47.796Z,22.90
2023-02-13T18:05:54.134Z,23.88
2023-02-13T18:11:00.510Z,25.04
2023-02-13T18:16:06.531Z,25.66
2023-02-13T18:21:13.628Z,24.84
2023-02-13T18:26:21.062Z,24.97
2023-02-13T18:31:27.269Z,25.47
2023-02-13T18:36:33.798Z,23.76
2023-02-13T18:41:39.901Z,25.87
2023-02-13T18:46:46.471Z,24.11
2023-02-13T18:51:52.582Z,26.40
2023-02-13T18:56:58.982Z,25.36
2023-02-13T19:02:08.178Z,25.11
2023-02-13T19:07:14.700Z,24.68
2023-02-13T19:12:20.835Z,23.81
2023-02-13T19:17:26.970Z,26.80
2023-02-13T19:22:33.067Z,25.60
2023-02-13T19:27:39.324Z,25.19
2023-02-13T19:32:45.417Z,26.39
2023-02-13T19:37:51.683Z,25.58
2023-02-13T19:42:57.851Z,24.73
2023-02-13T19:48:04.189Z,24.65
2023-02-13T19:53:10.340Z,21.99
2023-02-13T19:58:16.609Z,25.71
2023-02-13T20:03:22.742Z,23.20
2023-02-13T20:08:28.977Z,24.80
2023-02-13T20:13:35.136Z,24.15
2023-02-13T20:18:41.316Z,24.47
2023-02-13T20:23:47.427Z,23.84
2023-02-13T20:28:53.663Z,25.13
2023-02-13T20:33:59.869Z,23.67
2023-02-13T20:39:06.396Z,24.10
2023-02-13T20:44:12.502Z,23.84
2023-02-13T20:49:18.867Z,22.30
2023-02-13T20:54:24.952Z,22.83
2023-02-13T20:59:31.209Z,23.57
2023-02-13T21:04:37.370Z,23.67
2023-02-13T21:09:43.541Z,22.41
2023-02-13T21:14:49.625Z,22.52
2023-02-13T21:19:55.919Z,23.14
2023-02-13T21:25:01.978Z,22.01
2023-02-13T21:30:08.625Z,20.76
2023-02-13T21:35:14.688Z,23.01
2023-02-13T21:40:21.026Z,21.68
2023-02-13T21:45:27.447Z,22.39
2023-02-13T21:50:33.726Z,22.18
2023-02-13T21:55:39.912Z,22.36
2023-02-13T22:00:46.405Z,20.79
2023-02-13T22:05:52.519Z,21.79
2023-02-13T22:10:59.372Z,20.52
2023-02-13T22:16:04.709Z,20.98
2023-02-13T22:21:10.962Z,37.82
2023-02-13T22:26:17.062Z,21.37
2023-02-13T22:31:25.606Z,21.98
2023-02-13T22:36:28.983Z,21.21
2023-02-13T22:41:35.234Z,20.20
2023-02-13T22:46:42.423Z,20.88
2023-02-13T22:51:48.532Z,20.58
2023-02-13T22:56:54.608Z,20.50
2023-02-13T23:02:01.021Z,20.81
2023-02-13T23:07:07.097Z,19.96
2023-02-13T23:12:13.565Z,22.30
2023-02-13T23:17:19.659Z,20.71
2023-02-13T23:22:25.901Z,20.99
2023-02-13T23:27:31.978Z,21.75
2023-02-13T23:32:38.205Z,26.12
2023-02-13T23:37:44.286Z,29.45
2023-02-13T23:42:51.284Z,29.07
2023-02-13T23:47:57.367Z,25.37
2023-02-13T23:53:03.590Z,22.90
2023-02-13T23:58:09.668Z,20.00
